sensor_id;sensor_type;location;lat;lon;timestamp;temperature;humidity
39103;DHT22;24847;48.218;16.414;2022-12-18T00:03:25;-0.80;99.90
39103;DHT22;24847;48.218;16.414;2022-12-18T00:08:27;-1.10;99.90
39103;DHT22;24847;48.218;16.414;2022-12-18T00:13:31;-1.20;99.90
39103;DHT22;24847;48.218;16.414;2022-12-18T00:18:40;-1.20;99.90
39103;DHT22;24847;48.218;16.414;2022-12-18T00:23:43;-1.30;99.90
39103;DHT22;24847;48.218;16.414;2022-12-18T00:28:48;-1.30;99.90
39103;DHT22;24847;48.218;16.414;2022-12-18T00:33:51;-1.40;99.90
39103;DHT22;24847;48.218;16.414;2022-12-18T00:38:53;-1.30;99.90
39103;DHT22;24847;48.218;16.414;2022-12-18T00:43:58;-1.30;99.90
39103;DHT22;24847;48.218;16.414;2022-12-18T00:49:00;-1.30;99.90
39103;DHT22;24847;48.218;16.414;2022-12-18T00:54:03;-1.40;99.90
39103;DHT22;24847;48.218;16.414;2022-12-18T00:59:07;-1.40;99.90
39103;DHT22;24847;48.218;16.414;2022-12-18T01:04:10;-1.40;99.90
39103;DHT22;24847;48.218;16.414;2022-12-18T01:09:18;-1.50;99.90
39103;DHT22;24847;48.218;16.414;2022-12-18T01:14:22;-1.70;99.90
39103;DHT22;24847;48.218;16.414;2022-12-18T01:19:24;-1.70;99.90
39103;DHT22;24847;48.218;16.414;2022-12-18T01:24:26;-1.70;99.90
39103;DHT22;24847;48.218;16.414;2022-12-18T01:29:30;-1.60;99.90
39103;DHT22;24847;48.218;16.414;2022-12-18T01:34:33;-1.70;99.90
39103;DHT22;24847;48.218;16.414;2022-12-18T01:39:35;-1.80;99.90
39103;DHT22;24847;48.218;16.414;2022-12-18T01:45:08;-1.80;99.90
39103;DHT22;24847;48.218;16.414;2022-12-18T01:50:31;-1.80;99.90
39103;DHT22;24847;48.218;16.414;2022-12-18T01:55:38;-1.80;99.90
39103;DHT22;24847;48.218;16.414;2022-12-18T02:00:45;-2.00;99.90
39103;DHT22;24847;48.218;16.414;2022-12-18T02:05:54;-2.00;99.90
39103;DHT22;24847;48.218;16.414;2022-12-18T02:11:06;-2.20;99.90
39103;DHT22;24847;48.218;16.414;2022-12-18T02:16:19;-2.30;99.90
39103;DHT22;24847;48.218;16.414;2022-12-18T02:21:31;-2.30;99.90
39103;DHT22;24847;48.218;16.414;2022-12-18T02:26:43;-2.40;99.90
39103;DHT22;24847;48.218;16.414;2022-12-18T02:31:52;-2.40;99.90
39103;DHT22;24847;48.218;16.414;2022-12-18T02:36:59;-2.40;99.90
39103;DHT22;24847;48.218;16.414;2022-12-18T02:42:05;-2.60;99.90
39103;DHT22;24847;48.218;16.414;2022-12-18T02:47:10;-2.40;99.90
39103;DHT22;24847;48.218;16.414;2022-12-18T02:52:20;-2.60;99.90
39103;DHT22;24847;48.218;16.414;2022-12-18T02:57:34;-2.50;99.90
39103;DHT22;24847;48.218;16.414;2022-12-18T03:02:44;-2.70;99.90
39103;DHT22;24847;48.218;16.414;2022-12-18T03:07:53;-2.60;99.90
39103;DHT22;24847;48.218;16.414;2022-12-18T03:13:04;-2.70;99.90
39103;DHT22;24847;48.218;16.414;2022-12-18T03:18:10;-2.80;99.90
39103;DHT22;24847;48.218;16.414;2022-12-18T03:23:18;-2.70;99.90
39103;DHT22;24847;48.218;16.414;2022-12-18T03:28:27;-2.70;99.90
39103;DHT22;24847;48.218;16.414;2022-12-18T03:33:34;-2.70;99.90
39103;DHT22;24847;48.218;16.414;2022-12-18T03:38:39;-2.80;99.90
39103;DHT22;24847;48.218;16.414;2022-12-18T03:43:49;-2.80;99.90
39103;DHT22;24847;48.218;16.414;2022-12-18T03:49:00;-2.80;99.90
39103;DHT22;24847;48.218;16.414;2022-12-18T03:54:06;-2.60;99.90
39103;DHT22;24847;48.218;16.414;2022-12-18T03:59:13;-2.80;99.90
39103;DHT22;24847;48.218;16.414;2022-12-18T04:04:18;-2.90;99.90
39103;DHT22;24847;48.218;16.414;2022-12-18T04:09:21;-2.90;99.90
39103;DHT22;24847;48.218;16.414;2022-12-18T04:14:24;-2.90;99.90
39103;DHT22;24847;48.218;16.414;2022-12-18T04:19:26;-2.90;99.90
39103;DHT22;24847;48.218;16.414;2022-12-18T04:24:29;-2.90;99.90
39103;DHT22;24847;48.218;16.414;2022-12-18T04:29:32;-2.80;99.90
39103;DHT22;24847;48.218;16.414;2022-12-18T04:34:34;-2.90;99.90
39103;DHT22;24847;48.218;16.414;2022-12-18T04:39:36;-2.80;99.90
39103;DHT22;24847;48.218;16.414;2022-12-18T04:44:40;-2.60;99.90
39103;DHT22;24847;48.218;16.414;2022-12-18T04:49:42;-2.60;99.90
39103;DHT22;24847;48.218;16.414;2022-12-18T04:54:44;-2.80;99.90
39103;DHT22;24847;48.218;16.414;2022-12-18T04:59:48;-2.80;99.90
39103;DHT22;24847;48.218;16.414;2022-12-18T05:04:50;-2.70;99.90
39103;DHT22;24847;48.218;16.414;2022-12-18T05:09:52;-2.70;99.90
39103;DHT22;24847;48.218;16.414;2022-12-18T05:14:56;-2.80;99.90
39103;DHT22;24847;48.218;16.414;2022-12-18T05:19:58;-2.80;99.90
39103;DHT22;24847;48.218;16.414;2022-12-18T05:25:00;-2.70;99.90
39103;DHT22;24847;48.218;16.414;2022-12-18T05:30:05;-2.70;99.90
39103;DHT22;24847;48.218;16.414;2022-12-18T05:35:10;-2.80;99.90
39103;DHT22;24847;48.218;16.414;2022-12-18T05:40:13;-2.90;99.90
39103;DHT22;24847;48.218;16.414;2022-12-18T05:45:16;-3.00;99.90
39103;DHT22;24847;48.218;16.414;2022-12-18T05:50:20;-3.00;99.90
39103;DHT22;24847;48.218;16.414;2022-12-18T05:55:22;-2.90;99.90
39103;DHT22;24847;48.218;16.414;2022-12-18T06:00:26;-2.80;99.90
39103;DHT22;24847;48.218;16.414;2022-12-18T06:05:29;-2.90;99.90
39103;DHT22;24847;48.218;16.414;2022-12-18T06:10:31;-2.80;99.90
39103;DHT22;24847;48.218;16.414;2022-12-18T06:15:36;-2.90;99.90
39103;DHT22;24847;48.218;16.414;2022-12-18T06:20:39;-3.00;99.90
39103;DHT22;24847;48.218;16.414;2022-12-18T06:25:42;-2.90;99.90
39103;DHT22;24847;48.218;16.414;2022-12-18T06:30:46;-2.80;99.90
39103;DHT22;24847;48.218;16.414;2022-12-18T06:35:49;-3.10;99.90
39103;DHT22;24847;48.218;16.414;2022-12-18T06:40:51;-3.20;99.90
39103;DHT22;24847;48.218;16.414;2022-12-18T06:45:59;-3.20;99.90
39103;DHT22;24847;48.218;16.414;2022-12-18T06:51:03;-3.30;99.90
39103;DHT22;24847;48.218;16.414;2022-12-18T06:56:07;-3.20;99.90
39103;DHT22;24847;48.218;16.414;2022-12-18T07:01:12;-3.30;99.90
39103;DHT22;24847;48.218;16.414;2022-12-18T07:06:16;-3.30;99.90
39103;DHT22;24847;48.218;16.414;2022-12-18T07:11:20;-3.20;99.90
39103;DHT22;24847;48.218;16.414;2022-12-18T07:16:23;-3.40;99.90
39103;DHT22;24847;48.218;16.414;2022-12-18T07:21:26;-3.40;99.90
39103;DHT22;24847;48.218;16.414;2022-12-18T07:26:28;-3.60;99.90
39103;DHT22;24847;48.218;16.414;2022-12-18T07:31:37;-3.80;99.90
39103;DHT22;24847;48.218;16.414;2022-12-18T07:36:42;-3.80;99.90
39103;DHT22;24847;48.218;16.414;2022-12-18T07:41:44;-3.80;99.90
39103;DHT22;24847;48.218;16.414;2022-12-18T07:47:09;-3.70;99.90
39103;DHT22;24847;48.218;16.414;2022-12-18T07:52:11;-3.60;99.90
39103;DHT22;24847;48.218;16.414;2022-12-18T07:57:14;-3.60;99.90
39103;DHT22;24847;48.218;16.414;2022-12-18T08:02:17;-3.60;99.90
39103;DHT22;24847;48.218;16.414;2022-12-18T08:07:19;-3.30;99.90
39103;DHT22;24847;48.218;16.414;2022-12-18T08:12:22;-3.30;99.90
39103;DHT22;24847;48.218;16.414;2022-12-18T08:17:25;-3.10;99.90
39103;DHT22;24847;48.218;16.414;2022-12-18T08:22:28;-3.10;99.90
39103;DHT22;24847;48.218;16.414;2022-12-18T08:27:30;-3.10;99.90
39103;DHT22;24847;48.218;16.414;2022-12-18T08:32:37;-2.80;99.90
39103;DHT22;24847;48.218;16.414;2022-12-18T08:37:39;-2.90;99.90
39103;DHT22;24847;48.218;16.414;2022-12-18T08:42:41;-2.70;99.90
39103;DHT22;24847;48.218;16.414;2022-12-18T08:48:02;-2.70;99.90
39103;DHT22;24847;48.218;16.414;2022-12-18T08:53:05;-2.60;99.90
39103;DHT22;24847;48.218;16.414;2022-12-18T08:58:07;-2.80;99.90
39103;DHT22;24847;48.218;16.414;2022-12-18T09:03:12;-2.60;99.90
39103;DHT22;24847;48.218;16.414;2022-12-18T09:08:15;-2.40;99.90
39103;DHT22;24847;48.218;16.414;2022-12-18T09:13:17;-2.40;99.90
39103;DHT22;24847;48.218;16.414;2022-12-18T09:18:22;-2.30;99.90
39103;DHT22;24847;48.218;16.414;2022-12-18T09:23:25;-2.20;99.90
39103;DHT22;24847;48.218;16.414;2022-12-18T09:28:27;-2.30;99.90
39103;DHT22;24847;48.218;16.414;2022-12-18T09:33:30;-2.30;99.90
39103;DHT22;24847;48.218;16.414;2022-12-18T09:38:33;-1.90;99.90
39103;DHT22;24847;48.218;16.414;2022-12-18T09:43:42;-2.10;99.90
39103;DHT22;24847;48.218;16.414;2022-12-18T09:48:50;-2.00;99.90
39103;DHT22;24847;48.218;16.414;2022-12-18T09:54:00;-2.00;99.90
39103;DHT22;24847;48.218;16.414;2022-12-18T09:59:05;-2.00;99.90
39103;DHT22;24847;48.218;16.414;2022-12-18T10:04:09;-1.80;99.90
39103;DHT22;24847;48.218;16.414;2022-12-18T10:09:20;-1.90;99.90
39103;DHT22;24847;48.218;16.414;2022-12-18T10:14:34;-1.70;99.90
39103;DHT22;24847;48.218;16.414;2022-12-18T10:19:46;-2.00;99.90
39103;DHT22;24847;48.218;16.414;2022-12-18T10:24:55;-2.00;99.90
39103;DHT22;24847;48.218;16.414;2022-12-18T10:30:07;-1.90;99.90
39103;DHT22;24847;48.218;16.414;2022-12-18T10:35:19;-1.80;99.90
39103;DHT22;24847;48.218;16.414;2022-12-18T10:40:23;-2.00;99.90
39103;DHT22;24847;48.218;16.414;2022-12-18T10:45:26;-1.80;99.90
39103;DHT22;24847;48.218;16.414;2022-12-18T10:50:32;-2.00;99.90
39103;DHT22;24847;48.218;16.414;2022-12-18T10:55:39;-1.90;99.90
39103;DHT22;24847;48.218;16.414;2022-12-18T11:01:03;-1.80;99.90
39103;DHT22;24847;48.218;16.414;2022-12-18T11:06:12;-1.90;99.90
39103;DHT22;24847;48.218;16.414;2022-12-18T11:11:20;-2.00;99.90
39103;DHT22;24847;48.218;16.414;2022-12-18T11:16:23;-2.00;99.90
39103;DHT22;24847;48.218;16.414;2022-12-18T11:21:26;-2.30;99.90
39103;DHT22;24847;48.218;16.414;2022-12-18T11:26:34;-2.20;99.90
39103;DHT22;24847;48.218;16.414;2022-12-18T11:31:38;-1.90;99.90
39103;DHT22;24847;48.218;16.414;2022-12-18T11:36:44;-1.90;99.90
39103;DHT22;24847;48.218;16.414;2022-12-18T11:41:53;-1.90;99.90
39103;DHT22;24847;48.218;16.414;2022-12-18T11:47:21;-1.90;99.90
39103;DHT22;24847;48.218;16.414;2022-12-18T11:52:33;-2.00;99.90
39103;DHT22;24847;48.218;16.414;2022-12-18T11:57:46;-1.80;99.90
39103;DHT22;24847;48.218;16.414;2022-12-18T12:03:11;-1.90;99.90
39103;DHT22;24847;48.218;16.414;2022-12-18T12:08:30;-2.00;99.90
39103;DHT22;24847;48.218;16.414;2022-12-18T12:13:46;-2.00;99.90
39103;DHT22;24847;48.218;16.414;2022-12-18T12:19:10;-2.10;99.90
39103;DHT22;24847;48.218;16.414;2022-12-18T12:24:36;-1.80;99.90
39103;DHT22;24847;48.218;16.414;2022-12-18T12:29:52;-1.90;99.90
39103;DHT22;24847;48.218;16.414;2022-12-18T12:35:12;-2.10;99.90
39103;DHT22;24847;48.218;16.414;2022-12-18T12:40:26;-2.00;99.90
39103;DHT22;24847;48.218;16.414;2022-12-18T12:45:34;-2.00;99.90
39103;DHT22;24847;48.218;16.414;2022-12-18T12:50:40;-2.10;99.90
39103;DHT22;24847;48.218;16.414;2022-12-18T12:55:48;-2.00;99.90
39103;DHT22;24847;48.218;16.414;2022-12-18T13:01:01;-2.10;99.90
39103;DHT22;24847;48.218;16.414;2022-12-18T13:06:24;-2.10;99.90
39103;DHT22;24847;48.218;16.414;2022-12-18T13:11:38;-2.20;99.90
39103;DHT22;24847;48.218;16.414;2022-12-18T13:17:29;-2.10;99.90
39103;DHT22;24847;48.218;16.414;2022-12-18T13:22:35;-2.00;99.90
39103;DHT22;24847;48.218;16.414;2022-12-18T13:28:05;-2.10;99.90
39103;DHT22;24847;48.218;16.414;2022-12-18T13:39:23;-2.00;99.90
39103;DHT22;24847;48.218;16.414;2022-12-18T13:44:32;-2.20;99.90
39103;DHT22;24847;48.218;16.414;2022-12-18T13:49:38;-2.20;99.90
39103;DHT22;24847;48.218;16.414;2022-12-18T13:54:42;-2.10;99.90
39103;DHT22;24847;48.218;16.414;2022-12-18T13:59:46;-2.20;99.90
39103;DHT22;24847;48.218;16.414;2022-12-18T14:04:54;-2.10;99.90
39103;DHT22;24847;48.218;16.414;2022-12-18T14:10:20;-2.10;99.90
39103;DHT22;24847;48.218;16.414;2022-12-18T14:15:31;-2.30;99.90
39103;DHT22;24847;48.218;16.414;2022-12-18T14:20:35;-2.10;99.90
39103;DHT22;24847;48.218;16.414;2022-12-18T14:25:37;-2.20;99.90
39103;DHT22;24847;48.218;16.414;2022-12-18T14:30:45;-2.20;99.90
39103;DHT22;24847;48.218;16.414;2022-12-18T14:35:55;-2.20;99.90
39103;DHT22;24847;48.218;16.414;2022-12-18T14:41:00;-2.30;99.90
39103;DHT22;24847;48.218;16.414;2022-12-18T14:46:26;-2.30;99.90
39103;DHT22;24847;48.218;16.414;2022-12-18T14:51:32;-2.30;99.90
39103;DHT22;24847;48.218;16.414;2022-12-18T14:56:37;-2.20;99.90
39103;DHT22;24847;48.218;16.414;2022-12-18T15:01:54;-2.30;99.90
39103;DHT22;24847;48.218;16.414;2022-12-18T15:07:08;-2.40;99.90
39103;DHT22;24847;48.218;16.414;2022-12-18T15:12:25;-2.50;99.90
39103;DHT22;24847;48.218;16.414;2022-12-18T15:17:33;-2.40;99.90
39103;DHT22;24847;48.218;16.414;2022-12-18T15:22:47;-2.40;99.90
39103;DHT22;24847;48.218;16.414;2022-12-18T15:27:56;-2.60;99.90
39103;DHT22;24847;48.218;16.414;2022-12-18T15:33:22;-2.50;99.90
39103;DHT22;24847;48.218;16.414;2022-12-18T15:38:27;-2.40;99.90
39103;DHT22;24847;48.218;16.414;2022-12-18T15:43:31;-2.30;99.90
39103;DHT22;24847;48.218;16.414;2022-12-18T15:48:40;-2.40;99.90
39103;DHT22;24847;48.218;16.414;2022-12-18T15:53:54;-2.20;99.90
39103;DHT22;24847;48.218;16.414;2022-12-18T15:58:58;-2.30;99.90
39103;DHT22;24847;48.218;16.414;2022-12-18T16:04:06;-2.20;99.90
39103;DHT22;24847;48.218;16.414;2022-12-18T16:09:09;-2.20;99.90
39103;DHT22;24847;48.218;16.414;2022-12-18T16:14:20;-2.50;99.90
39103;DHT22;24847;48.218;16.414;2022-12-18T16:19:26;-2.40;99.90
39103;DHT22;24847;48.218;16.414;2022-12-18T16:24:35;-2.50;99.90
39103;DHT22;24847;48.218;16.414;2022-12-18T16:29:39;-2.30;99.90
39103;DHT22;24847;48.218;16.414;2022-12-18T16:34:48;-2.40;99.90
39103;DHT22;24847;48.218;16.414;2022-12-18T16:39:52;-2.40;99.90
39103;DHT22;24847;48.218;16.414;2022-12-18T16:44:56;-2.40;99.90
39103;DHT22;24847;48.218;16.414;2022-12-18T16:50:04;-2.40;99.90
39103;DHT22;24847;48.218;16.414;2022-12-18T16:55:08;-2.50;99.90
39103;DHT22;24847;48.218;16.414;2022-12-18T17:00:28;-2.50;99.90
39103;DHT22;24847;48.218;16.414;2022-12-18T17:05:35;-2.40;99.90
39103;DHT22;24847;48.218;16.414;2022-12-18T17:10:38;-2.40;99.90
39103;DHT22;24847;48.218;16.414;2022-12-18T17:15:43;-2.40;99.90
39103;DHT22;24847;48.218;16.414;2022-12-18T17:20:48;-2.30;99.90
39103;DHT22;24847;48.218;16.414;2022-12-18T17:25:58;-2.30;99.90
39103;DHT22;24847;48.218;16.414;2022-12-18T17:31:10;-2.30;99.90
39103;DHT22;24847;48.218;16.414;2022-12-18T17:36:16;-2.30;99.90
39103;DHT22;24847;48.218;16.414;2022-12-18T17:41:27;-2.30;99.90
39103;DHT22;24847;48.218;16.414;2022-12-18T17:46:49;-2.40;99.90
39103;DHT22;24847;48.218;16.414;2022-12-18T17:52:20;-2.30;99.90
39103;DHT22;24847;48.218;16.414;2022-12-18T17:57:25;-2.50;99.90
39103;DHT22;24847;48.218;16.414;2022-12-18T18:02:28;-2.30;99.90
39103;DHT22;24847;48.218;16.414;2022-12-18T18:07:38;-2.20;99.90
39103;DHT22;24847;48.218;16.414;2022-12-18T18:12:50;-2.30;99.90
39103;DHT22;24847;48.218;16.414;2022-12-18T18:18:11;-2.50;99.90
39103;DHT22;24847;48.218;16.414;2022-12-18T18:23:18;-2.40;99.90
39103;DHT22;24847;48.218;16.414;2022-12-18T18:28:29;-2.30;99.90
39103;DHT22;24847;48.218;16.414;2022-12-18T18:33:51;-2.30;99.90
39103;DHT22;24847;48.218;16.414;2022-12-18T18:39:06;-2.40;99.90
39103;DHT22;24847;48.218;16.414;2022-12-18T18:44:10;-2.20;99.90
39103;DHT22;24847;48.218;16.414;2022-12-18T18:49:14;-2.20;99.90
39103;DHT22;24847;48.218;16.414;2022-12-18T18:54:19;-2.30;99.90
39103;DHT22;24847;48.218;16.414;2022-12-18T18:59:25;-2.20;99.90
39103;DHT22;24847;48.218;16.414;2022-12-18T19:04:28;-2.10;99.90
39103;DHT22;24847;48.218;16.414;2022-12-18T19:09:38;-2.00;99.90
39103;DHT22;24847;48.218;16.414;2022-12-18T19:14:57;-2.00;99.90
39103;DHT22;24847;48.218;16.414;2022-12-18T19:20:08;-1.70;99.90
39103;DHT22;24847;48.218;16.414;2022-12-18T19:25:16;-1.50;99.90
39103;DHT22;24847;48.218;16.414;2022-12-18T19:30:31;-1.60;99.90
39103;DHT22;24847;48.218;16.414;2022-12-18T19:35:42;-1.40;99.90
39103;DHT22;24847;48.218;16.414;2022-12-18T19:40:53;-1.40;99.90
39103;DHT22;24847;48.218;16.414;2022-12-18T19:45:57;-1.50;99.90
39103;DHT22;24847;48.218;16.414;2022-12-18T19:51:04;-1.30;99.90
39103;DHT22;24847;48.218;16.414;2022-12-18T19:56:12;-1.60;99.90
39103;DHT22;24847;48.218;16.414;2022-12-18T20:01:23;-1.30;99.90
39103;DHT22;24847;48.218;16.414;2022-12-18T20:06:29;-1.20;99.90
39103;DHT22;24847;48.218;16.414;2022-12-18T20:11:36;-1.20;99.90
39103;DHT22;24847;48.218;16.414;2022-12-18T20:16:39;-1.20;99.90
39103;DHT22;24847;48.218;16.414;2022-12-18T20:21:44;-1.30;99.90
39103;DHT22;24847;48.218;16.414;2022-12-18T20:26:48;-1.20;99.90
39103;DHT22;24847;48.218;16.414;2022-12-18T20:31:52;-1.20;99.90
39103;DHT22;24847;48.218;16.414;2022-12-18T20:36:59;-1.20;99.90
39103;DHT22;24847;48.218;16.414;2022-12-18T20:42:03;-1.10;99.90
39103;DHT22;24847;48.218;16.414;2022-12-18T20:47:06;-1.10;99.90
39103;DHT22;24847;48.218;16.414;2022-12-18T20:52:10;-1.10;99.90
39103;DHT22;24847;48.218;16.414;2022-12-18T20:57:14;-1.10;99.90
39103;DHT22;24847;48.218;16.414;2022-12-18T21:02:18;-1.20;99.90
39103;DHT22;24847;48.218;16.414;2022-12-18T21:07:20;-1.30;99.90
39103;DHT22;24847;48.218;16.414;2022-12-18T21:12:24;-1.30;99.90
39103;DHT22;24847;48.218;16.414;2022-12-18T21:17:34;-1.30;99.90
39103;DHT22;24847;48.218;16.414;2022-12-18T21:22:36;-1.20;99.90
39103;DHT22;24847;48.218;16.414;2022-12-18T21:27:40;-1.30;99.90
39103;DHT22;24847;48.218;16.414;2022-12-18T21:32:44;-1.20;99.90
39103;DHT22;24847;48.218;16.414;2022-12-18T21:37:47;-1.30;99.90
39103;DHT22;24847;48.218;16.414;2022-12-18T21:42:52;-1.40;99.90
39103;DHT22;24847;48.218;16.414;2022-12-18T21:48:14;-1.50;99.90
39103;DHT22;24847;48.218;16.414;2022-12-18T21:53:16;-1.50;99.90
39103;DHT22;24847;48.218;16.414;2022-12-18T21:58:20;-1.50;99.90
39103;DHT22;24847;48.218;16.414;2022-12-18T22:03:22;-1.60;99.90
39103;DHT22;24847;48.218;16.414;2022-12-18T22:08:28;-1.60;99.90
39103;DHT22;24847;48.218;16.414;2022-12-18T22:13:32;-1.70;99.90
39103;DHT22;24847;48.218;16.414;2022-12-18T22:18:34;-1.70;99.90
39103;DHT22;24847;48.218;16.414;2022-12-18T22:23:36;-1.70;99.90
39103;DHT22;24847;48.218;16.414;2022-12-18T22:28:40;-1.60;99.90
39103;DHT22;24847;48.218;16.414;2022-12-18T22:34:01;-1.60;99.90
39103;DHT22;24847;48.218;16.414;2022-12-18T22:39:06;-1.50;99.90
39103;DHT22;24847;48.218;16.414;2022-12-18T22:44:14;-1.60;99.90
39103;DHT22;24847;48.218;16.414;2022-12-18T22:49:18;-1.50;99.90
39103;DHT22;24847;48.218;16.414;2022-12-18T22:54:21;-1.60;99.90
39103;DHT22;24847;48.218;16.414;2022-12-18T22:59:30;-1.60;99.90
39103;DHT22;24847;48.218;16.414;2022-12-18T23:04:33;-1.70;99.90
39103;DHT22;24847;48.218;16.414;2022-12-18T23:09:36;-1.60;99.90
39103;DHT22;24847;48.218;16.414;2022-12-18T23:14:40;-1.50;99.90
39103;DHT22;24847;48.218;16.414;2022-12-18T23:19:42;-1.50;99.90
39103;DHT22;24847;48.218;16.414;2022-12-18T23:24:45;-1.60;99.90
39103;DHT22;24847;48.218;16.414;2022-12-18T23:29:49;-1.50;99.90
39103;DHT22;24847;48.218;16.414;2022-12-18T23:34:52;-1.50;99.90
39103;DHT22;24847;48.218;16.414;2022-12-18T23:39:54;-1.60;99.90
39103;DHT22;24847;48.218;16.414;2022-12-18T23:44:57;-1.50;99.90
39103;DHT22;24847;48.218;16.414;2022-12-18T23:49:59;-1.50;99.90
39103;DHT22;24847;48.218;16.414;2022-12-18T23:55:02;-1.40;99.90
